createdAt,value
2019-05-30T00:00:06.702Z,5.30
2019-05-30T00:00:56.502Z,5.30
2019-05-30T00:01:56.431Z,5.60
2019-05-30T00:02:56.696Z,5.20
2019-05-30T00:03:56.020Z,5.20
2019-05-30T00:04:56.107Z,5.80
2019-05-30T00:05:56.298Z,5.60
2019-05-30T00:06:56.933Z,5.50
2019-05-30T00:07:56.170Z,5.40
2019-05-30T00:08:56.325Z,5.60
2019-05-30T00:09:56.376Z,5.80
2019-05-30T00:10:56.421Z,5.50
2019-05-30T00:11:56.554Z,5.20
2019-05-30T00:12:56.598Z,5.40
2019-05-30T00:13:57.140Z,5.50
2019-05-30T00:14:56.433Z,5.20
2019-05-30T00:15:56.521Z,5.30
2019-05-30T00:16:56.668Z,5.70
2019-05-30T00:17:56.632Z,5.50
2019-05-30T00:18:55.255Z,5.10
2019-05-30T00:19:55.232Z,5.00
2019-05-30T00:20:55.247Z,5.10
2019-05-30T00:21:56.603Z,5.20
2019-05-30T00:22:55.283Z,5.20
2019-05-30T00:23:55.775Z,5.30
2019-05-30T00:24:55.934Z,5.60
2019-05-30T00:25:55.284Z,5.50
2019-05-30T00:26:56.209Z,5.60
2019-05-30T00:27:55.152Z,5.30
2019-05-30T00:28:56.133Z,5.60
2019-05-30T00:29:55.186Z,5.10
2019-05-30T00:30:56.280Z,5.10
2019-05-30T00:31:55.531Z,5.20
2019-05-30T00:32:56.669Z,5.10
2019-05-30T00:33:55.497Z,4.80
2019-05-30T00:34:55.543Z,5.10
2019-05-30T00:35:55.546Z,4.90
2019-05-30T00:37:04.168Z,4.70
2019-05-30T00:38:04.059Z,4.90
2019-05-30T00:39:04.067Z,4.70
2019-05-30T00:39:55.786Z,5.00
2019-05-30T00:40:55.751Z,5.10
2019-05-30T00:41:56.012Z,5.00
2019-05-30T00:42:57.866Z,5.10
2019-05-30T00:43:57.664Z,4.80
2019-05-30T00:44:57.877Z,4.80
2019-05-30T00:46:06.255Z,4.90
2019-05-30T00:47:00.483Z,4.80
2019-05-30T00:47:55.949Z,4.70
2019-05-30T00:48:56.195Z,4.90
2019-05-30T00:49:56.124Z,4.90
2019-05-30T00:50:58.345Z,5.00
2019-05-30T00:52:02.538Z,5.30
2019-05-30T00:52:58.847Z,5.20
2019-05-30T00:53:58.471Z,5.10
2019-05-30T00:54:58.418Z,4.90
2019-05-30T00:55:56.679Z,4.50
2019-05-30T00:56:56.546Z,4.80
2019-05-30T00:57:57.083Z,4.80
2019-05-30T00:59:00.640Z,4.70
2019-05-30T01:00:01.159Z,4.80
2019-05-30T01:00:55.126Z,4.50
2019-05-30T01:01:55.032Z,4.80
2019-05-30T01:02:55.375Z,4.50
2019-05-30T01:03:55.007Z,4.60
2019-05-30T01:04:55.150Z,4.50
2019-05-30T01:05:54.837Z,4.70
2019-05-30T01:06:54.717Z,5.20
2019-05-30T01:07:54.724Z,5.00
2019-05-30T01:08:54.792Z,5.00
2019-05-30T01:09:54.713Z,5.10
2019-05-30T01:10:54.766Z,4.80
2019-05-30T01:11:54.687Z,4.90
2019-05-30T01:12:54.669Z,5.30
2019-05-30T01:13:54.679Z,5.10
2019-05-30T01:14:54.680Z,5.20
2019-05-30T01:15:54.635Z,5.20
2019-05-30T01:16:54.701Z,5.30
2019-05-30T01:17:54.600Z,5.40
2019-05-30T01:18:55.043Z,5.10
2019-05-30T01:19:54.901Z,5.50
2019-05-30T01:20:54.775Z,5.70
2019-05-30T01:21:54.671Z,5.70
2019-05-30T01:22:54.556Z,5.60
2019-05-30T01:23:54.651Z,5.20
2019-05-30T01:24:54.567Z,5.10
2019-05-30T01:25:54.695Z,4.90
2019-05-30T01:26:55.528Z,5.30
2019-05-30T01:27:57.312Z,4.90
2019-05-30T01:28:55.735Z,4.70
2019-05-30T01:29:54.886Z,4.50
2019-05-30T01:31:00.203Z,4.60
2019-05-30T01:31:55.556Z,4.20
2019-05-30T01:32:54.515Z,4.30
2019-05-30T01:33:54.443Z,4.30
2019-05-30T01:34:54.494Z,4.50
2019-05-30T01:35:54.653Z,4.50
2019-05-30T01:36:54.524Z,4.20
2019-05-30T01:37:54.444Z,4.20
2019-05-30T01:38:54.395Z,4.50
2019-05-30T01:39:54.411Z,4.40
2019-05-30T01:40:54.410Z,4.60
2019-05-30T01:41:54.411Z,4.40
2019-05-30T01:42:54.899Z,4.50
2019-05-30T01:43:54.615Z,4.30
2019-05-30T01:44:54.542Z,4.30
2019-05-30T01:46:00.147Z,4.40
2019-05-30T01:46:55.794Z,4.10
2019-05-30T01:47:55.725Z,4.50
2019-05-30T01:48:54.298Z,4.20
2019-05-30T01:49:54.465Z,4.10
2019-05-30T01:50:54.329Z,4.70
2019-05-30T01:51:54.751Z,4.40
2019-05-30T01:52:54.350Z,4.60
2019-05-30T01:53:58.359Z,4.40
2019-05-30T01:54:55.935Z,4.60
2019-05-30T01:55:55.033Z,4.40
2019-05-30T01:56:54.217Z,4.40
2019-05-30T01:57:54.309Z,4.40
2019-05-30T01:58:54.210Z,4.00
2019-05-30T01:59:54.253Z,4.00
2019-05-30T02:00:54.321Z,4.20
2019-05-30T02:01:54.782Z,4.10
2019-05-30T02:02:54.567Z,4.30
2019-05-30T02:03:55.036Z,4.30
2019-05-30T02:04:54.218Z,4.00
2019-05-30T02:05:55.020Z,4.00
2019-05-30T02:06:54.583Z,3.90
2019-05-30T02:07:54.115Z,4.20
2019-05-30T02:08:54.287Z,3.90
2019-05-30T02:09:54.174Z,4.30
2019-05-30T02:10:54.778Z,4.20
2019-05-30T02:11:54.042Z,3.70
2019-05-30T02:12:54.150Z,4.20
2019-05-30T02:13:54.015Z,3.80
2019-05-30T02:14:53.998Z,3.90
2019-05-30T02:15:54.006Z,4.00
2019-05-30T02:16:54.014Z,3.50
2019-05-30T02:17:54.019Z,3.60
2019-05-30T02:18:53.946Z,3.60
2019-05-30T02:19:53.986Z,3.70
2019-05-30T02:20:53.970Z,3.70
2019-05-30T02:21:54.088Z,3.90
2019-05-30T02:22:54.347Z,3.30
2019-05-30T02:23:56.355Z,3.60
2019-05-30T02:24:54.104Z,3.60
2019-05-30T02:25:53.985Z,3.50
2019-05-30T02:26:54.266Z,3.30
2019-05-30T02:27:53.910Z,3.30
2019-05-30T02:28:54.214Z,3.30
2019-05-30T02:29:54.547Z,3.20
2019-05-30T02:30:53.831Z,3.40
2019-05-30T02:31:54.872Z,3.20
2019-05-30T02:32:55.649Z,3.40
2019-05-30T02:33:53.812Z,3.00
2019-05-30T02:34:53.918Z,3.20
2019-05-30T02:35:53.820Z,3.20
2019-05-30T02:36:53.814Z,3.20
2019-05-30T02:37:53.763Z,3.10
2019-05-30T02:38:53.741Z,3.30
2019-05-30T02:39:53.767Z,3.20
2019-05-30T02:40:53.706Z,3.00
2019-05-30T02:41:53.728Z,3.00
2019-05-30T02:42:54.356Z,3.20
2019-05-30T02:43:53.691Z,3.30
2019-05-30T02:44:53.756Z,3.20
2019-05-30T02:45:53.664Z,3.20
2019-05-30T02:46:56.144Z,3.40
2019-05-30T02:47:57.592Z,3.20
2019-05-30T02:48:58.958Z,3.10
2019-05-30T02:49:56.137Z,3.50
2019-05-30T02:50:53.698Z,3.10
2019-05-30T02:51:53.810Z,3.30
2019-05-30T02:52:53.742Z,3.30
2019-05-30T02:53:53.652Z,3.20
2019-05-30T02:54:55.518Z,3.10
2019-05-30T02:55:53.673Z,3.40
2019-05-30T02:56:53.571Z,3.30
2019-05-30T02:57:53.516Z,3.50
2019-05-30T02:58:53.570Z,3.20
2019-05-30T02:59:53.526Z,2.90
2019-05-30T03:00:53.551Z,3.20
2019-05-30T03:02:00.787Z,3.20
2019-05-30T03:02:54.483Z,3.40
2019-05-30T03:03:53.500Z,3.80
2019-05-30T03:04:53.460Z,3.60
2019-05-30T03:05:53.475Z,3.20
2019-05-30T03:06:53.468Z,3.10
2019-05-30T03:07:53.558Z,3.60
2019-05-30T03:08:53.442Z,3.70
2019-05-30T03:09:53.489Z,4.20
2019-05-30T03:10:53.425Z,4.60
2019-05-30T03:11:53.412Z,4.40
2019-05-30T03:12:53.370Z,4.10
2019-05-30T03:13:53.377Z,4.00
2019-05-30T03:14:53.344Z,4.30
2019-05-30T03:15:53.371Z,4.20
2019-05-30T03:16:53.358Z,4.00
2019-05-30T03:17:53.311Z,4.10
2019-05-30T03:18:53.327Z,4.80
2019-05-30T03:19:53.325Z,4.20
2019-05-30T03:20:53.314Z,4.10
2019-05-30T03:21:53.308Z,4.20
2019-05-30T03:22:53.279Z,3.90
2019-05-30T03:23:53.305Z,4.20
2019-05-30T03:24:53.265Z,4.50
2019-05-30T03:25:53.290Z,4.10
2019-05-30T03:26:53.256Z,4.50
2019-05-30T03:27:53.233Z,5.20
2019-05-30T03:28:53.646Z,5.30
2019-05-30T03:29:53.264Z,5.10
2019-05-30T03:30:53.183Z,5.70
2019-05-30T03:31:53.190Z,5.20
2019-05-30T03:33:07.312Z,5.30
2019-05-30T03:33:54.163Z,5.20
2019-05-30T03:34:53.170Z,4.90
2019-05-30T03:35:53.227Z,5.20
2019-05-30T03:36:53.110Z,5.30
2019-05-30T03:37:53.106Z,4.80
2019-05-30T03:38:53.182Z,5.50
2019-05-30T03:39:53.080Z,5.20
2019-05-30T03:40:53.087Z,5.60
2019-05-30T03:41:53.073Z,5.30
2019-05-30T03:42:53.076Z,5.60
2019-05-30T03:43:53.043Z,4.30
2019-05-30T03:44:53.022Z,4.90
2019-05-30T03:45:53.066Z,4.80
2019-05-30T03:46:53.218Z,4.90
2019-05-30T03:47:52.997Z,4.60
2019-05-30T03:48:52.989Z,4.50
2019-05-30T03:49:53.550Z,4.10
2019-05-30T03:50:53.493Z,3.80
2019-05-30T03:51:53.074Z,4.10
2019-05-30T03:52:53.353Z,3.80
2019-05-30T03:53:52.957Z,3.80
2019-05-30T03:54:53.058Z,3.90
2019-05-30T03:55:53.294Z,3.50
2019-05-30T03:56:55.574Z,3.60
2019-05-30T03:57:53.120Z,3.60
2019-05-30T03:58:53.137Z,3.90
2019-05-30T03:59:52.907Z,3.80
2019-05-30T04:00:52.875Z,3.50
2019-05-30T04:01:53.133Z,3.50
2019-05-30T04:02:58.024Z,3.60
2019-05-30T04:03:53.840Z,3.30
2019-05-30T04:04:52.941Z,3.60
2019-05-30T04:05:52.875Z,3.60
2019-05-30T04:06:52.986Z,3.40
2019-05-30T04:07:52.809Z,3.30
2019-05-30T04:08:52.976Z,3.50
2019-05-30T04:09:53.089Z,3.40
2019-05-30T04:10:53.149Z,3.40
2019-05-30T04:11:52.942Z,3.10
2019-05-30T04:12:53.098Z,3.50
2019-05-30T04:13:53.267Z,3.40
2019-05-30T04:14:53.693Z,3.60
2019-05-30T04:15:53.010Z,3.30
2019-05-30T04:16:53.342Z,3.60
2019-05-30T04:17:53.358Z,3.30
2019-05-30T04:18:53.115Z,3.50
2019-05-30T04:19:52.995Z,3.30
2019-05-30T04:20:52.716Z,3.20
2019-05-30T04:21:52.908Z,3.20
2019-05-30T04:22:52.789Z,3.30
2019-05-30T04:23:52.657Z,3.10
2019-05-30T04:24:52.669Z,2.90
2019-05-30T04:25:52.632Z,3.00
2019-05-30T04:26:52.594Z,3.00
2019-05-30T04:27:52.582Z,3.00
2019-05-30T04:28:52.580Z,2.80
2019-05-30T04:29:52.593Z,2.90
2019-05-30T04:30:53.201Z,2.90
2019-05-30T04:31:52.612Z,3.00
2019-05-30T04:32:52.575Z,2.90
2019-05-30T04:33:52.549Z,2.70
2019-05-30T04:34:52.545Z,2.80
2019-05-30T04:35:52.623Z,2.80
2019-05-30T04:36:53.533Z,2.60
2019-05-30T04:37:52.498Z,2.80
2019-05-30T04:38:52.516Z,3.00
2019-05-30T04:39:52.461Z,2.90
2019-05-30T04:40:52.445Z,2.80
2019-05-30T04:41:52.504Z,2.90
2019-05-30T04:42:52.402Z,2.70
2019-05-30T04:43:52.463Z,2.70
2019-05-30T04:44:52.403Z,2.80
2019-05-30T04:45:52.446Z,2.60
2019-05-30T04:46:52.362Z,2.80
2019-05-30T04:47:52.406Z,2.80
2019-05-30T04:48:52.341Z,2.70
2019-05-30T04:49:52.341Z,2.80
2019-05-30T04:50:52.312Z,2.60
2019-05-30T04:51:52.333Z,2.60
2019-05-30T04:52:52.343Z,2.90
2019-05-30T04:53:52.305Z,2.50
2019-05-30T04:54:52.280Z,2.90
2019-05-30T04:55:52.324Z,2.70
2019-05-30T04:56:52.253Z,2.70
2019-05-30T04:57:52.296Z,2.70
2019-05-30T04:58:52.286Z,2.70
2019-05-30T04:59:52.229Z,2.90
2019-05-30T05:00:52.231Z,2.40
2019-05-30T05:01:52.261Z,2.70
2019-05-30T05:02:52.219Z,2.80
2019-05-30T05:03:52.202Z,2.90
2019-05-30T05:04:52.172Z,2.70
2019-05-30T05:05:52.155Z,2.70
2019-05-30T05:06:52.155Z,2.70
2019-05-30T05:07:52.166Z,2.90
2019-05-30T05:08:52.154Z,2.80
2019-05-30T05:09:52.124Z,2.40
2019-05-30T05:10:52.112Z,2.80
2019-05-30T05:11:52.131Z,2.60
2019-05-30T05:12:52.101Z,2.60
2019-05-30T05:13:52.112Z,2.70
2019-05-30T05:14:52.095Z,2.50
2019-05-30T05:15:52.046Z,2.70
2019-05-30T05:16:52.062Z,2.60
2019-05-30T05:17:52.055Z,2.50
2019-05-30T05:18:52.076Z,2.70
2019-05-30T05:19:52.009Z,2.80
2019-05-30T05:20:52.022Z,2.70
2019-05-30T05:21:52.009Z,2.70
2019-05-30T05:22:51.987Z,2.90
2019-05-30T05:23:52.063Z,2.50
2019-05-30T05:24:52.070Z,2.70
2019-05-30T05:26:01.061Z,2.50
2019-05-30T05:26:52.990Z,2.70
2019-05-30T05:27:51.924Z,2.70
2019-05-30T05:28:51.915Z,2.60
2019-05-30T05:29:57.024Z,2.90
2019-05-30T05:30:53.952Z,2.70
2019-05-30T05:31:51.916Z,3.00
2019-05-30T05:32:52.364Z,2.90
2019-05-30T05:33:56.703Z,2.90
2019-05-30T05:34:52.585Z,2.50
2019-05-30T05:35:51.875Z,2.90
2019-05-30T05:36:54.819Z,2.80
2019-05-30T05:37:51.887Z,2.60
2019-05-30T05:38:51.855Z,3.00
2019-05-30T05:39:52.634Z,2.70
2019-05-30T05:40:51.832Z,2.60
2019-05-30T05:41:51.920Z,2.80
2019-05-30T05:42:51.879Z,2.70
2019-05-30T05:43:51.768Z,2.70
2019-05-30T05:44:51.756Z,2.50
2019-05-30T05:45:53.120Z,2.80
2019-05-30T05:46:51.755Z,2.90
2019-05-30T05:47:52.069Z,2.70
2019-05-30T05:48:51.713Z,2.60
2019-05-30T05:49:51.702Z,2.70
2019-05-30T05:50:51.690Z,2.70
2019-05-30T05:51:51.717Z,2.50
2019-05-30T05:52:51.658Z,2.70
2019-05-30T05:53:51.662Z,2.60
2019-05-30T05:54:51.644Z,2.70
2019-05-30T05:55:51.690Z,3.00
2019-05-30T05:56:51.664Z,2.70
2019-05-30T05:57:51.661Z,2.70
2019-05-30T05:58:51.589Z,2.60
2019-05-30T05:59:51.615Z,2.80
2019-05-30T06:00:51.635Z,2.90
2019-05-30T06:01:51.586Z,2.50
2019-05-30T06:02:51.607Z,2.90
2019-05-30T06:03:51.598Z,2.70
2019-05-30T06:04:51.609Z,2.60
2019-05-30T06:05:53.256Z,2.50
2019-05-30T06:06:51.527Z,2.80
2019-05-30T06:07:51.623Z,2.70
2019-05-30T06:08:51.496Z,2.40
2019-05-30T06:09:51.502Z,2.90
2019-05-30T06:10:51.549Z,2.70
2019-05-30T06:11:51.467Z,2.60
2019-05-30T06:12:51.479Z,2.60
2019-05-30T06:13:51.503Z,2.90
2019-05-30T06:14:52.095Z,2.70
2019-05-30T06:15:52.100Z,2.60
2019-05-30T06:16:51.615Z,2.60
2019-05-30T06:17:51.464Z,2.60
2019-05-30T06:18:51.383Z,2.70
2019-05-30T06:19:51.422Z,2.40
2019-05-30T06:20:51.534Z,2.80
2019-05-30T06:21:54.398Z,2.50
2019-05-30T06:22:51.345Z,2.60
2019-05-30T06:23:51.376Z,2.30
2019-05-30T06:24:51.330Z,2.40
2019-05-30T06:25:51.354Z,2.60
2019-05-30T06:26:51.340Z,2.50
2019-05-30T06:27:51.283Z,2.60
2019-05-30T06:28:51.347Z,2.30
2019-05-30T06:29:51.365Z,2.60
2019-05-30T06:30:51.305Z,2.30
2019-05-30T06:31:51.335Z,2.50
2019-05-30T06:32:51.261Z,2.50
2019-05-30T06:33:51.246Z,2.50
2019-05-30T06:34:51.259Z,3.20
2019-05-30T06:35:51.236Z,2.70
2019-05-30T06:36:51.359Z,2.50
2019-05-30T06:37:51.288Z,2.80
2019-05-30T06:38:51.174Z,3.00
2019-05-30T06:39:51.230Z,2.50
2019-05-30T06:40:51.164Z,2.60
2019-05-30T06:41:51.164Z,2.40
2019-05-30T06:42:51.163Z,2.90
2019-05-30T06:43:51.182Z,2.60
2019-05-30T06:44:51.128Z,2.60
2019-05-30T06:45:51.106Z,2.50
2019-05-30T06:46:51.144Z,2.50
2019-05-30T06:47:51.083Z,2.60
2019-05-30T06:48:51.096Z,2.50
2019-05-30T06:49:51.106Z,2.80
2019-05-30T06:50:51.117Z,2.80
2019-05-30T06:51:51.060Z,2.60
2019-05-30T06:52:51.082Z,2.40
2019-05-30T06:53:51.024Z,2.50
2019-05-30T06:54:51.003Z,2.40
2019-05-30T06:55:51.077Z,2.60
2019-05-30T06:56:51.072Z,2.40
2019-05-30T06:57:50.978Z,2.50
2019-05-30T06:58:50.984Z,2.60
2019-05-30T06:59:50.980Z,2.50
2019-05-30T07:00:50.989Z,2.30
2019-05-30T07:01:52.234Z,2.50
2019-05-30T07:02:51.044Z,2.50
2019-05-30T07:03:51.111Z,2.50
2019-05-30T07:04:52.732Z,2.40
2019-05-30T07:05:51.463Z,2.30
2019-05-30T07:06:51.225Z,2.20
2019-05-30T07:07:51.035Z,2.40
2019-05-30T07:08:50.865Z,2.30
2019-05-30T07:09:50.899Z,2.10
2019-05-30T07:10:50.836Z,2.10
2019-05-30T07:11:50.870Z,2.10
2019-05-30T07:12:50.887Z,1.80
2019-05-30T07:13:50.816Z,1.90
2019-05-30T07:14:50.837Z,2.00
2019-05-30T07:15:50.801Z,1.90
2019-05-30T07:16:50.876Z,1.90
2019-05-30T07:17:50.773Z,2.00
2019-05-30T07:18:50.768Z,2.00
2019-05-30T07:19:50.821Z,1.90
2019-05-30T07:20:50.755Z,2.00
2019-05-30T07:21:50.873Z,2.10
2019-05-30T07:22:50.789Z,2.10
2019-05-30T07:23:50.752Z,1.90
2019-05-30T07:24:51.005Z,2.10
2019-05-30T07:25:50.717Z,2.30
2019-05-30T07:28:35.183Z,2.20
2019-05-30T07:29:35.224Z,2.30
2019-05-30T07:30:35.118Z,2.10
2019-05-30T07:31:35.090Z,2.40
2019-05-30T07:32:35.046Z,2.10
2019-05-30T07:33:35.062Z,2.20
2019-05-30T07:34:35.793Z,2.20
2019-05-30T07:35:35.201Z,2.10
2019-05-30T07:36:35.922Z,2.00
2019-05-30T07:37:35.679Z,2.00
2019-05-30T07:38:35.033Z,2.10
2019-05-30T07:39:37.372Z,2.10
2019-05-30T07:40:35.925Z,2.60
2019-05-30T07:41:35.356Z,2.10
2019-05-30T07:42:35.499Z,2.30
2019-05-30T07:43:35.273Z,2.00
2019-05-30T07:44:43.849Z,2.10
2019-05-30T07:45:35.226Z,2.40
2019-05-30T07:46:35.191Z,2.30
2019-05-30T07:47:35.142Z,2.30
2019-05-30T07:48:35.044Z,2.40
2019-05-30T07:51:32.735Z,2.20
2019-05-30T07:52:42.006Z,2.30
2019-05-30T07:54:50.637Z,2.30
2019-05-30T07:55:50.327Z,2.20
2019-05-30T07:59:13.935Z,2.10
2019-05-30T08:00:13.898Z,2.20
2019-05-30T08:01:13.928Z,2.00
2019-05-30T08:02:13.911Z,2.00
2019-05-30T08:03:13.894Z,2.20
2019-05-30T08:04:13.941Z,2.30
2019-05-30T08:05:23.752Z,2.20
2019-05-30T08:06:14.857Z,1.80
2019-05-30T08:07:13.919Z,2.00
2019-05-30T08:08:14.181Z,2.00
2019-05-30T08:09:14.401Z,1.90
2019-05-30T08:10:13.919Z,2.10
2019-05-30T08:11:13.871Z,1.90
2019-05-30T08:12:14.238Z,2.00
2019-05-30T08:13:16.930Z,2.20
2019-05-30T08:16:44.671Z,2.20
2019-05-30T08:17:44.289Z,2.00
2019-05-30T08:20:04.702Z,2.00
2019-05-30T08:21:06.872Z,1.90
2019-05-30T08:22:04.912Z,1.80
2019-05-30T08:23:03.917Z,1.90
2019-05-30T08:24:07.911Z,1.90
2019-05-30T08:25:11.247Z,1.90
2019-05-30T08:26:05.822Z,1.70
2019-05-30T08:27:03.873Z,1.90
2019-05-30T08:28:03.861Z,1.60
2019-05-30T08:29:05.115Z,1.40
2019-05-30T08:30:03.788Z,1.40
2019-05-30T08:31:03.806Z,1.50
2019-05-30T08:32:03.716Z,1.60
2019-05-30T08:33:04.062Z,1.60
2019-05-30T08:34:04.118Z,1.60
2019-05-30T08:35:03.844Z,1.60
2019-05-30T08:36:05.654Z,2.00
2019-05-30T08:37:03.765Z,1.60
2019-05-30T08:38:04.958Z,1.80
2019-05-30T08:39:03.652Z,1.60
2019-05-30T08:40:04.423Z,1.50
2019-05-30T08:41:03.867Z,1.40
2019-05-30T08:42:03.896Z,1.40
2019-05-30T08:43:03.604Z,1.30
2019-05-30T08:44:03.616Z,1.50
2019-05-30T08:45:04.465Z,1.60
2019-05-30T08:46:03.600Z,1.60
2019-05-30T08:47:06.160Z,1.60
2019-05-30T08:48:03.542Z,1.50
2019-05-30T08:51:42.625Z,1.40
2019-05-30T08:52:44.016Z,1.40
2019-05-30T08:53:51.510Z,1.70
2019-05-30T08:54:43.380Z,1.50
2019-05-30T08:55:42.032Z,1.40
2019-05-30T08:56:42.083Z,1.50
2019-05-30T08:57:42.073Z,1.70
2019-05-30T08:58:42.082Z,1.80
2019-05-30T08:59:44.766Z,1.80
2019-05-30T09:00:45.493Z,1.80
2019-05-30T09:01:43.925Z,1.50
2019-05-30T09:02:45.041Z,1.40
2019-05-30T09:03:44.135Z,1.40
2019-05-30T09:06:10.808Z,1.70
2019-05-30T09:07:12.677Z,1.40
2019-05-30T09:08:10.768Z,1.50
2019-05-30T09:09:12.154Z,1.60
2019-05-30T09:10:12.163Z,1.50
2019-05-30T09:11:11.650Z,1.20
2019-05-30T09:12:15.149Z,2.20
2019-05-30T09:14:33.176Z,2.10
2019-05-30T09:15:33.404Z,1.80
2019-05-30T09:16:33.051Z,1.50
2019-05-30T09:17:33.147Z,1.50
2019-05-30T09:18:33.049Z,1.50
2019-05-30T09:19:33.052Z,1.50
2019-05-30T09:20:35.204Z,1.50
2019-05-30T09:21:33.080Z,1.40
2019-05-30T09:22:32.985Z,1.30
2019-05-30T09:23:32.938Z,1.40
2019-05-30T09:24:32.974Z,1.40
2019-05-30T09:25:33.149Z,1.60
2019-05-30T09:26:36.076Z,1.50
2019-05-30T09:37:43.814Z,1.30
2019-05-30T09:38:43.447Z,1.30
2019-05-30T09:39:43.360Z,1.20
2019-05-30T09:40:42.158Z,1.20
2019-05-30T09:41:42.263Z,1.40
2019-05-30T09:42:44.203Z,1.50
2019-05-30T09:43:42.925Z,1.20
2019-05-30T09:45:00.000Z,1.30
2019-05-30T09:45:42.362Z,1.30
2019-05-30T09:46:42.533Z,1.20
2019-05-30T09:47:43.702Z,1.30
2019-05-30T09:48:43.189Z,1.30
2019-05-30T09:49:43.146Z,1.30
2019-05-30T09:50:42.484Z,1.50
2019-05-30T09:51:43.700Z,1.20
2019-05-30T09:52:43.474Z,1.10
2019-05-30T09:53:44.011Z,1.20
2019-05-30T09:59:38.901Z,1.30
2019-05-30T10:00:38.433Z,1.30
2019-05-30T10:01:39.342Z,1.10
2019-05-30T10:02:38.496Z,1.30
2019-05-30T10:03:38.541Z,1.40
2019-05-30T10:04:38.043Z,1.20
2019-05-30T10:05:38.036Z,3.10
2019-05-30T10:06:48.440Z,2.00
2019-05-30T10:07:48.869Z,1.30
2019-05-30T10:08:47.882Z,1.30
2019-05-30T10:09:37.979Z,1.20
2019-05-30T10:10:38.587Z,1.10
2019-05-30T10:11:37.944Z,1.00
2019-05-30T10:12:37.915Z,1.10
2019-05-30T10:13:37.910Z,1.30
2019-05-30T10:14:37.904Z,4.30
2019-05-30T10:15:37.913Z,3.30
2019-05-30T10:16:37.866Z,1.20
2019-05-30T10:17:37.922Z,1.50
2019-05-30T10:18:37.987Z,1.30
2019-05-30T10:19:38.167Z,1.00
2019-05-30T10:20:37.841Z,1.10
2019-05-30T10:21:37.908Z,1.20
2019-05-30T10:22:37.840Z,1.20
2019-05-30T10:23:38.095Z,1.30
2019-05-30T10:24:37.784Z,1.30
2019-05-30T10:25:37.852Z,1.30
2019-05-30T10:26:37.833Z,1.30
2019-05-30T10:27:37.845Z,1.30
2019-05-30T10:28:38.294Z,1.20
2019-05-30T10:29:37.735Z,1.20
2019-05-30T10:30:37.790Z,1.40
2019-05-30T10:31:37.875Z,1.30
2019-05-30T10:32:37.767Z,1.90
2019-05-30T10:33:38.080Z,2.20
2019-05-30T10:34:37.681Z,1.40
2019-05-30T10:35:38.396Z,2.30
2019-05-30T10:37:54.697Z,1.20
2019-05-30T10:38:55.940Z,1.10
2019-05-30T10:39:58.740Z,1.30
2019-05-30T10:40:54.567Z,1.40
2019-05-30T10:41:54.563Z,1.60
2019-05-30T10:42:55.159Z,1.30
2019-05-30T10:43:54.598Z,1.30
2019-05-30T10:44:54.674Z,1.30
2019-05-30T10:45:54.563Z,1.40
2019-05-30T10:46:54.691Z,1.30
2019-05-30T10:47:54.544Z,1.50
2019-05-30T10:48:54.804Z,1.70
2019-05-30T10:49:55.354Z,1.40
2019-05-30T10:50:54.552Z,1.60
2019-05-30T10:51:58.791Z,1.60
2019-05-30T10:52:55.539Z,1.30
2019-05-30T10:53:55.682Z,1.40
2019-05-30T10:54:55.545Z,1.30
2019-05-30T10:55:54.853Z,1.40
2019-05-30T10:56:55.647Z,1.40
2019-05-30T10:57:58.156Z,1.40
2019-05-30T10:58:55.433Z,1.40
2019-05-30T10:59:54.696Z,1.50
2019-05-30T11:00:55.875Z,1.30
2019-05-30T11:01:54.586Z,1.20
2019-05-30T11:02:55.008Z,1.20
2019-05-30T11:03:54.849Z,1.20
2019-05-30T11:04:55.020Z,1.30
2019-05-30T11:05:55.032Z,1.60
2019-05-30T11:07:09.639Z,1.40
2019-05-30T11:08:03.942Z,1.30
2019-05-30T11:10:04.936Z,1.90
2019-05-30T11:11:04.968Z,1.50
2019-05-30T11:12:15.222Z,1.40
2019-05-30T11:13:05.960Z,1.40
2019-05-30T11:14:04.926Z,1.40
2019-05-30T11:15:14.729Z,1.40
2019-05-30T11:16:04.873Z,1.40
2019-05-30T11:17:04.916Z,1.90
2019-05-30T11:18:04.962Z,2.30
2019-05-30T11:20:26.419Z,1.40
2019-05-30T11:21:26.469Z,1.40
2019-05-30T11:22:26.773Z,1.70
2019-05-30T11:23:26.412Z,1.70
2019-05-30T11:24:26.362Z,2.00
2019-05-30T11:25:26.474Z,1.30
2019-05-30T11:26:26.377Z,2.10
2019-05-30T11:27:26.411Z,1.50
2019-05-30T11:28:26.421Z,1.40
2019-05-30T11:29:26.379Z,1.50
2019-05-30T11:30:26.324Z,1.40
2019-05-30T11:31:26.347Z,1.50
2019-05-30T11:32:26.393Z,1.90
2019-05-30T11:33:26.470Z,1.80
2019-05-30T11:34:26.428Z,2.00
2019-05-30T11:35:26.286Z,1.80
2019-05-30T11:36:26.247Z,1.70
2019-05-30T11:37:26.404Z,1.40
2019-05-30T11:38:26.289Z,1.30
2019-05-30T11:39:26.273Z,1.40
2019-05-30T11:40:26.229Z,1.30
2019-05-30T11:41:26.473Z,2.60
2019-05-30T11:42:26.330Z,1.60
2019-05-30T11:43:26.222Z,2.80
2019-05-30T11:44:26.191Z,1.80
2019-05-30T11:45:26.307Z,1.50
2019-05-30T11:46:26.174Z,1.70
2019-05-30T11:47:26.167Z,1.70
2019-05-30T11:48:26.191Z,2.30
2019-05-30T11:49:26.143Z,2.20
2019-05-30T11:50:26.135Z,1.90
2019-05-30T11:51:26.783Z,1.70
2019-05-30T11:52:26.778Z,1.50
2019-05-30T11:53:26.218Z,1.60
2019-05-30T11:54:26.774Z,1.50
2019-05-30T11:55:26.160Z,1.60
2019-05-30T11:56:26.773Z,1.60
2019-05-30T11:57:26.172Z,1.60
2019-05-30T11:58:26.347Z,1.80
2019-05-30T11:59:26.087Z,1.60
2019-05-30T12:00:26.834Z,1.40
2019-05-30T12:01:26.238Z,1.50
2019-05-30T12:02:26.030Z,1.40
2019-05-30T12:03:29.191Z,1.80
2019-05-30T12:04:26.776Z,1.70
2019-05-30T12:05:26.030Z,1.50
2019-05-30T12:06:25.981Z,1.40
2019-05-30T12:07:35.773Z,1.60
2019-05-30T12:08:26.944Z,1.50
2019-05-30T12:09:26.004Z,1.50
2019-05-30T12:10:25.915Z,1.40
2019-05-30T12:11:25.998Z,1.50
2019-05-30T12:12:26.127Z,1.50
2019-05-30T12:13:25.919Z,1.40
2019-05-30T12:14:25.915Z,1.50
2019-05-30T12:15:25.975Z,1.40
2019-05-30T12:16:25.871Z,1.50
2019-05-30T12:17:26.028Z,1.60
2019-05-30T12:18:25.890Z,1.70
2019-05-30T12:19:25.873Z,1.50
2019-05-30T12:20:26.284Z,1.40
2019-05-30T12:21:29.626Z,1.90
2019-05-30T12:22:26.786Z,1.80
2019-05-30T12:23:26.285Z,1.50
2019-05-30T12:24:25.807Z,1.40
2019-05-30T12:25:25.888Z,1.40
2019-05-30T12:26:25.819Z,1.40
2019-05-30T12:27:26.786Z,2.00
2019-05-30T12:28:26.380Z,1.80
2019-05-30T12:29:26.301Z,1.90
2019-05-30T12:30:25.921Z,1.40
2019-05-30T12:31:25.792Z,1.60
2019-05-30T12:32:26.322Z,1.60
2019-05-30T12:33:25.737Z,1.50
2019-05-30T12:34:25.763Z,1.40
2019-05-30T12:35:25.829Z,1.30
2019-05-30T12:36:25.703Z,1.40
2019-05-30T12:37:26.414Z,1.40
2019-05-30T12:38:26.293Z,1.50
2019-05-30T12:39:25.662Z,1.40
2019-05-30T12:40:25.645Z,1.30
2019-05-30T12:41:26.357Z,1.40
2019-05-30T12:42:26.299Z,1.50
2019-05-30T12:43:25.716Z,1.50
2019-05-30T12:44:25.655Z,1.40
2019-05-30T12:45:25.601Z,1.50
2019-05-30T12:46:25.687Z,1.30
2019-05-30T12:47:25.577Z,1.50
2019-05-30T12:48:25.930Z,1.60
2019-05-30T12:49:25.630Z,1.70
2019-05-30T12:50:25.570Z,1.50
2019-05-30T12:51:26.699Z,1.40
2019-05-30T12:52:25.515Z,1.30
2019-05-30T12:53:25.557Z,1.30
2019-05-30T12:54:25.562Z,1.50
2019-05-30T12:55:25.583Z,1.40
2019-05-30T12:56:25.493Z,1.80
2019-05-30T12:57:25.599Z,1.50
2019-05-30T12:58:25.559Z,1.40
2019-05-30T12:59:26.308Z,1.40
2019-05-30T13:00:25.722Z,1.80
2019-05-30T13:01:27.488Z,1.60
2019-05-30T13:02:26.080Z,2.20
2019-05-30T13:03:25.495Z,1.90
2019-05-30T13:04:25.518Z,1.60
2019-05-30T13:05:25.450Z,1.50
2019-05-30T13:06:25.683Z,1.50
2019-05-30T13:07:27.359Z,2.50
2019-05-30T13:08:25.391Z,1.70
2019-05-30T13:09:25.470Z,1.60
2019-05-30T13:10:26.303Z,1.90
2019-05-30T13:11:25.383Z,1.50
2019-05-30T13:12:25.401Z,1.70
2019-05-30T13:13:26.304Z,1.50
2019-05-30T13:14:25.806Z,1.40
2019-05-30T13:15:25.803Z,1.50
2019-05-30T13:16:25.753Z,1.50
2019-05-30T13:17:25.810Z,1.60
2019-05-30T13:18:25.940Z,1.50
2019-05-30T13:19:25.807Z,1.30
2019-05-30T13:20:25.424Z,1.50
2019-05-30T13:21:25.807Z,1.40
2019-05-30T13:22:26.306Z,1.50
2019-05-30T13:23:25.235Z,1.60
2019-05-30T13:24:25.320Z,1.70
2019-05-30T13:25:25.212Z,4.80
2019-05-30T13:26:25.282Z,2.00
2019-05-30T13:27:25.938Z,1.50
2019-05-30T13:28:26.020Z,1.40
2019-05-30T13:29:25.198Z,1.50
2019-05-30T13:30:25.227Z,1.50
2019-05-30T13:31:25.814Z,2.10
2019-05-30T13:32:25.209Z,1.30
2019-05-30T13:33:25.197Z,1.40
2019-05-30T13:34:25.169Z,1.40
2019-05-30T13:35:25.092Z,1.30
2019-05-30T13:36:25.280Z,1.70
2019-05-30T13:37:25.247Z,1.70
2019-05-30T13:38:26.799Z,1.60
2019-05-30T13:39:25.132Z,1.70
2019-05-30T13:40:25.884Z,1.80
2019-05-30T13:41:25.086Z,1.40
2019-05-30T13:42:25.016Z,1.80
2019-05-30T13:43:27.863Z,2.00
2019-05-30T13:44:36.363Z,1.90
2019-05-30T13:45:25.107Z,2.20
2019-05-30T13:46:26.368Z,1.40
2019-05-30T13:47:24.988Z,1.40
2019-05-30T13:48:25.177Z,1.80
2019-05-30T13:49:25.118Z,1.50
2019-05-30T13:50:25.103Z,1.50
2019-05-30T13:51:24.996Z,1.50
2019-05-30T13:52:25.037Z,1.50
2019-05-30T13:53:25.006Z,1.60